TimeCST,TemperatureF,Dew PointF,Humidity,Sea Level PressureIn,VisibilityMPH,Wind Direction,Wind SpeedMPH,Gust SpeedMPH,PrecipitationIn,Events,Conditions,WindDirDegrees,DateUTC
12:54 AM,21.0,12.9,71,30.37,10.0,NNW,15.0,-,N/A,,Clear,330,2013-02-15 06:54:00
1:54 AM,19.9,14.0,78,30.38,10.0,NW,11.5,-,N/A,,Clear,320,2013-02-15 07:54:00
2:54 AM,19.0,12.9,77,30.39,10.0,NW,8.1,-,N/A,,Clear,310,2013-02-15 08:54:00
3:54 AM,17.1,12.0,81,30.40,10.0,NW,4.6,-,N/A,,Clear,310,2013-02-15 09:54:00
4:54 AM,18.0,10.9,74,30.40,10.0,WNW,3.5,-,N/A,,Clear,300,2013-02-15 10:54:00
5:54 AM,17.1,10.9,77,30.42,10.0,NNW,6.9,-,N/A,,Clear,330,2013-02-15 11:54:00
6:54 AM,17.1,10.0,74,30.42,10.0,NW,3.5,-,N/A,,Clear,320,2013-02-15 12:54:00
7:54 AM,15.1,10.9,84,30.43,10.0,Calm,Calm,-,N/A,,Clear,0,2013-02-15 13:54:00
8:54 AM,25.0,16.0,69,30.43,10.0,NW,10.4,-,N/A,,Partly Cloudy,310,2013-02-15 14:54:00
9:54 AM,28.9,15.1,56,30.42,10.0,WNW,8.1,-,N/A,,Mostly Cloudy,300,2013-02-15 15:54:00
10:54 AM,30.0,12.0,47,30.41,10.0,NW,4.6,-,N/A,,Overcast,310,2013-02-15 16:54:00
11:54 AM,32.0,12.0,44,30.40,10.0,North,10.4,-,N/A,,Overcast,360,2013-02-15 17:54:00
12:54 PM,33.1,17.1,52,30.38,10.0,NW,6.9,-,N/A,,Overcast,310,2013-02-15 18:54:00
1:54 PM,34.0,18.0,52,30.35,10.0,West,9.2,-,N/A,,Overcast,260,2013-02-15 19:54:00
2:54 PM,33.1,19.9,59,30.33,9.0,Variable,4.6,-,0.00,,Overcast,0,2013-02-15 20:54:00
3:19 PM,30.2,24.8,80,30.28,1.8,NW,11.5,18.4,0.00,Snow,Light Snow,320,2013-02-15 21:19:00
3:25 PM,30.2,24.8,80,30.29,0.8,NNW,11.5,-,0.00,Snow,Light Snow,340,2013-02-15 21:25:00
3:35 PM,30.2,24.8,80,30.29,0.8,NNW,8.1,-,0.00,Snow,Light Snow,330,2013-02-15 21:35:00
3:37 PM,30.2,24.8,80,30.29,1.5,NNW,8.1,-,0.00,Snow,Light Snow,330,2013-02-15 21:37:00
3:54 PM,30.9,25.0,79,30.35,1.5,NNW,11.5,-,0.01,Snow,Light Snow,340,2013-02-15 21:54:00
3:57 PM,30.2,24.8,80,30.29,1.0,NNW,16.1,-,0.00,Snow,Light Snow,330,2013-02-15 21:57:00
4:11 PM,28.4,24.8,86,30.30,0.8,NW,12.7,-,0.00,Snow,Light Snow,320,2013-02-15 22:11:00
4:24 PM,28.4,24.8,86,30.29,2.0,West,8.1,-,0.00,Snow,Light Snow,280,2013-02-15 22:24:00
4:32 PM,28.4,24.8,86,30.29,4.0,West,9.2,-,0.00,Snow,Light Snow,280,2013-02-15 22:32:00
4:44 PM,30.2,24.8,80,30.29,10.0,WNW,8.1,-,0.00,,Overcast,290,2013-02-15 22:44:00
4:54 PM,30.0,25.0,82,30.35,10.0,WNW,6.9,-,0.00,,Overcast,290,2013-02-15 22:54:00
5:09 PM,30.2,24.8,80,30.30,0.2,WNW,11.5,-,0.00,Snow,Heavy Snow,300,2013-02-15 23:09:00
5:12 PM,28.4,24.8,86,30.30,1.0,NW,12.7,-,0.00,Snow,Light Snow,320,2013-02-15 23:12:00
5:15 PM,28.4,24.8,86,30.29,2.0,NW,8.1,-,0.00,Snow,Light Snow,320,2013-02-15 23:15:00
5:21 PM,30.2,24.8,80,30.29,4.0,NW,10.4,-,0.00,Snow,Light Snow,320,2013-02-15 23:21:00
5:54 PM,30.0,21.9,72,30.35,4.0,North,19.6,-,0.00,,Haze,350,2013-02-15 23:54:00
6:13 PM,28.4,23.0,80,30.32,1.8,NNW,19.6,25.3,0.00,Snow,Light Snow,330,2013-02-16 00:13:00
6:16 PM,26.6,24.8,93,30.32,0.8,NW,21.9,26.5,0.00,Snow,Light Snow,320,2013-02-16 00:16:00
6:18 PM,26.6,24.8,93,30.32,0.8,NNW,23.0,27.6,0.00,Snow,Light Snow,330,2013-02-16 00:18:00
6:27 PM,26.6,23.0,86,30.32,2.0,NNW,18.4,26.5,0.01,Snow,Light Snow,330,2013-02-16 00:27:00
6:33 PM,26.6,21.2,80,30.32,8.0,NNW,20.7,-,0.01,,Overcast,330,2013-02-16 00:33:00
6:54 PM,27.0,21.0,78,30.38,10.0,NNW,15.0,-,0.01,,Mostly Cloudy,340,2013-02-16 00:54:00
7:54 PM,25.0,19.0,78,30.40,10.0,North,17.3,-,N/A,,Clear,350,2013-02-16 01:54:00
8:17 PM,26.6,21.2,80,30.34,10.0,North,13.8,-,N/A,,Mostly Cloudy,360,2013-02-16 02:17:00
8:45 PM,24.8,21.2,86,30.35,10.0,NNW,15.0,-,N/A,,Overcast,340,2013-02-16 02:45:00
8:54 PM,25.0,19.9,81,30.39,8.0,North,13.8,-,0.00,Snow,Light Snow,360,2013-02-16 02:54:00
9:36 PM,24.8,19.4,80,30.35,10.0,NNW,10.4,-,0.00,,Overcast,340,2013-02-16 03:36:00
9:54 PM,24.1,18.0,77,30.41,10.0,NW,9.2,-,0.00,,Overcast,320,2013-02-16 03:54:00
10:36 PM,21.2,15.8,80,30.37,10.0,NNW,9.2,-,N/A,,Mostly Cloudy,340,2013-02-16 04:36:00
10:54 PM,21.9,17.1,82,30.41,10.0,WNW,5.8,-,N/A,,Mostly Cloudy,300,2013-02-16 04:54:00
11:54 PM,19.9,15.1,81,30.40,10.0,NW,5.8,-,N/A,,Clear,310,2013-02-16 05:54:00